Time;durP1;ratioP1;P1;durP2;ratioP2;P2;SDS_P1;SDS_P2;PMS_P1;PMS_P2;Temp;Humidity;BMP_temperature;BMP_pressure;BME280_temperature;BME280_humidity;BME280_pressure;Samples;Min_cycle;Max_cycle;Signal;HPM_P1;HPM_P2
2023/08/28 00:00:46;;;;;;;39.25;25.85;;;18.40;99.90;;;;;;5029733;28;20030;-76
2023/08/28 00:03:12;;;;;;;30.42;19.70;;;18.40;99.90;;;;;;5029465;28;20396;-76
2023/08/28 00:05:38;;;;;;;22.75;15.30;;;18.30;99.90;;;;;;5027826;28;20025;-76
2023/08/28 00:08:04;;;;;;;18.20;12.02;;;18.30;99.90;;;;;;5029265;28;20026;-77
2023/08/28 00:10:31;;;;;;;12.15;9.63;;;18.30;99.90;;;;;;5027279;28;20397;-76
2023/08/28 00:12:57;;;;;;;10.80;7.55;;;18.40;99.90;;;;;;5028647;28;20025;-76
2023/08/28 00:15:22;;;;;;;6.60;5.22;;;18.40;99.90;;;;;;5029031;28;20557;-76
2023/08/28 00:17:48;;;;;;;6.85;4.97;;;18.40;99.90;;;;;;5027853;28;20034;-76
2023/08/28 00:20:16;;;;;;;6.13;5.13;;;18.30;99.90;;;;;;5030426;28;20047;-80
2023/08/28 00:22:42;;;;;;;6.13;4.55;;;18.30;99.90;;;;;;5028722;28;20025;-79
2023/08/28 00:25:08;;;;;;;5.13;4.47;;;18.30;99.90;;;;;;5029345;28;20029;-76
2023/08/28 00:27:33;;;;;;;5.30;3.90;;;18.30;99.90;;;;;;5030163;28;20394;-76
2023/08/28 00:29:59;;;;;;;4.28;3.30;;;18.30;99.90;;;;;;5031403;28;20030;-79
2023/08/28 00:32:26;;;;;;;2.97;1.88;;;18.20;99.90;;;;;;5032602;28;20033;-79
2023/08/28 00:34:52;;;;;;;1.50;1.40;;;18.20;99.90;;;;;;5036857;28;20028;-76
2023/08/28 00:37:18;;;;;;;1.83;1.73;;;18.20;99.90;;;;;;5039267;28;20109;-75
2023/08/28 00:39:43;;;;;;;2.55;1.30;;;18.20;99.90;;;;;;5038070;28;20026;-79
2023/08/28 00:42:09;;;;;;;1.35;1.25;;;18.20;99.90;;;;;;5031042;28;20435;-75
2023/08/28 00:44:35;;;;;;;0.90;0.85;;;18.20;99.90;;;;;;5045193;28;20033;-76
2023/08/28 00:47:02;;;;;;;1.42;1.25;;;18.10;99.90;;;;;;5047547;28;20024;-75
2023/08/28 00:49:29;;;;;;;0.80;0.65;;;18.10;99.90;;;;;;5045219;28;20057;-76
2023/08/28 00:51:55;;;;;;;0.85;0.85;;;18.10;99.90;;;;;;5044704;28;20021;-76
2023/08/28 00:54:21;;;;;;;0.95;0.95;;;18.10;99.90;;;;;;5051471;28;20382;-75
2023/08/28 00:56:47;;;;;;;1.00;0.90;;;18.10;99.90;;;;;;5039260;28;20043;-75
2023/08/28 00:59:15;;;;;;;2.83;1.40;;;18.10;99.90;;;;;;5032027;28;20062;-75
2023/08/28 01:01:40;;;;;;;1.15;1.05;;;18.00;99.90;;;;;;5043489;28;20017;-75
2023/08/28 01:04:06;;;;;;;1.58;0.95;;;18.00;99.90;;;;;;5030675;28;20036;-75
2023/08/28 01:07:07;;;;;;;2.08;1.10;;;18.00;99.90;;;;;;5027741;28;20104;-79
2023/08/28 01:09:48;;;;;;;0.85;0.80;;;18.00;99.90;;;;;;5022057;28;20395;-75
2023/08/28 01:12:51;;;;;;;1.13;0.90;;;17.90;99.90;;;;;;5036843;28;20394;-80
2023/08/28 01:15:20;;;;;;;;;;;17.90;99.90;;;;;;5044209;28;20045;-79
2023/08/28 01:17:50;;;;;;;0.70;0.70;;;17.90;99.90;;;;;;5045556;28;19912;-75
2023/08/28 01:20:16;;;;;;;0.85;0.70;;;17.90;99.90;;;;;;5031893;28;20037;-76
2023/08/28 01:22:56;;;;;;;0.50;0.50;;;17.80;99.90;;;;;;5030384;28;20026;-76
2023/08/28 01:25:26;;;;;;;1.85;0.60;;;17.70;99.90;;;;;;5038037;28;20102;-79
2023/08/28 01:27:52;;;;;;;0.50;0.50;;;17.60;99.90;;;;;;5042797;28;20024;-79
2023/08/28 01:30:18;;;;;;;0.60;0.60;;;17.60;99.90;;;;;;5040030;28;20059;-79
2023/08/28 01:32:45;;;;;;;0.70;0.65;;;17.50;99.90;;;;;;5030172;28;20025;-76
2023/08/28 01:35:15;;;;;;;0.60;0.60;;;17.50;99.90;;;;;;5039965;28;20017;-75
2023/08/28 01:38:19;;;;;;;0.60;0.55;;;17.50;99.90;;;;;;5032270;28;20045;-79
2023/08/28 01:41:19;;;;;;;1.30;1.10;;;17.50;99.90;;;;;;5072110;28;20036;-76
2023/08/28 01:43:48;;;;;;;1.15;0.85;;;17.40;99.90;;;;;;5046068;28;20025;-78
2023/08/28 01:46:15;;;;;;;0.73;0.50;;;17.40;99.90;;;;;;5029771;28;20074;-78
2023/08/28 01:48:45;;;;;;;1.88;0.65;;;17.40;99.90;;;;;;5031571;28;20104;-78
2023/08/28 01:51:11;;;;;;;1.05;0.73;;;17.30;99.90;;;;;;5030254;28;20100;-79
2023/08/28 01:53:37;;;;;;;3.20;0.85;;;17.30;99.90;;;;;;5031204;28;20061;-76
2023/08/28 01:56:08;;;;;;;0.77;0.70;;;17.30;99.90;;;;;;5030416;28;20025;-79
2023/08/28 01:58:38;;;;;;;0.70;0.68;;;17.30;99.90;;;;;;5030928;28;20094;-76
2023/08/28 02:01:03;;;;;;;2.50;1.10;;;17.40;99.90;;;;;;5049660;28;20021;-76
2023/08/28 02:03:32;;;;;;;0.68;0.50;;;17.30;99.90;;;;;;5035795;28;20028;-79
2023/08/28 02:05:58;;;;;;;2.15;0.70;;;17.30;99.90;;;;;;5050594;28;20026;-79
2023/08/28 02:08:23;;;;;;;0.70;0.70;;;17.30;99.90;;;;;;5035501;28;20029;-79
2023/08/28 02:10:49;;;;;;;0.63;0.63;;;17.30;99.90;;;;;;5039478;28;20619;-75
2023/08/28 02:13:15;;;;;;;0.50;0.50;;;17.30;99.90;;;;;;5047691;28;20025;-76
2023/08/28 02:15:40;;;;;;;2.72;0.90;;;17.30;99.90;;;;;;5037930;28;20029;-76
2023/08/28 02:18:06;;;;;;;0.88;0.80;;;17.30;99.90;;;;;;5034398;28;20042;-79
2023/08/28 02:20:32;;;;;;;2.03;1.02;;;17.30;99.90;;;;;;5029689;28;20473;-78
2023/08/28 02:22:58;;;;;;;0.88;0.77;;;17.30;99.90;;;;;;5019231;28;20521;-79
2023/08/28 02:25:24;;;;;;;1.77;1.00;;;17.40;99.90;;;;;;5016503;28;20071;-79
2023/08/28 02:27:50;;;;;;;1.67;1.20;;;17.40;99.90;;;;;;5018696;28;20478;-76
2023/08/28 02:30:17;;;;;;;1.23;1.13;;;17.40;99.90;;;;;;5025527;28;20022;-76
2023/08/28 02:32:42;;;;;;;1.17;1.08;;;17.40;99.90;;;;;;5024115;28;20026;-78
2023/08/28 02:35:09;;;;;;;1.05;0.82;;;17.40;99.90;;;;;;5030624;28;20423;-76
2023/08/28 02:37:35;;;;;;;1.42;1.20;;;17.30;99.90;;;;;;5029254;28;20056;-76
2023/08/28 02:40:00;;;;;;;1.35;1.25;;;17.30;99.90;;;;;;5020300;28;20022;-79
2023/08/28 02:42:26;;;;;;;1.38;1.00;;;17.30;99.90;;;;;;5048772;28;20021;-78
2023/08/28 02:44:52;;;;;;;2.05;1.13;;;17.30;99.90;;;;;;5034299;28;20022;-76
2023/08/28 02:47:18;;;;;;;1.73;1.10;;;17.30;99.90;;;;;;5029085;28;20108;-78
2023/08/28 02:49:43;;;;;;;2.55;0.80;;;17.30;99.90;;;;;;5031505;28;20034;-76
2023/08/28 02:52:09;;;;;;;1.75;1.00;;;17.30;99.90;;;;;;5040231;28;20022;-78
2023/08/28 02:54:34;;;;;;;1.10;1.00;;;17.20;99.90;;;;;;5028966;28;20017;-78
2023/08/28 02:57:00;;;;;;;1.20;1.10;;;17.20;99.90;;;;;;5019667;28;20109;-75
2023/08/28 02:59:27;;;;;;;1.95;0.80;;;17.20;99.90;;;;;;5042047;28;20467;-78
2023/08/28 03:01:53;;;;;;;1.15;1.05;;;17.20;99.90;;;;;;5030082;28;20030;-76
2023/08/28 03:04:19;;;;;;;1.83;1.40;;;17.20;99.90;;;;;;5028984;28;20052;-76
2023/08/28 03:06:44;;;;;;;2.70;1.50;;;17.20;99.90;;;;;;5030078;28;20057;-79
2023/08/28 03:09:14;;;;;;;4.07;2.05;;;17.10;99.90;;;;;;5029199;28;20021;-76
2023/08/28 03:11:40;;;;;;;2.13;1.63;;;17.20;99.90;;;;;;5029274;28;20061;-79
2023/08/28 03:14:05;;;;;;;5.45;1.95;;;17.30;99.90;;;;;;5028877;28;20030;-76
2023/08/28 03:16:31;;;;;;;2.05;1.60;;;17.30;99.90;;;;;;5030160;28;20431;-79
2023/08/28 03:18:56;;;;;;;1.80;1.67;;;17.40;99.90;;;;;;5028850;28;20048;-76
2023/08/28 03:21:22;;;;;;;2.75;1.63;;;17.40;99.90;;;;;;5030148;28;20029;-76
2023/08/28 03:23:48;;;;;;;3.28;1.85;;;17.40;99.90;;;;;;5030434;28;20049;-76
2023/08/28 03:26:14;;;;;;;1.77;1.38;;;17.40;99.90;;;;;;5028760;28;20085;-79
2023/08/28 03:28:39;;;;;;;1.77;1.67;;;17.40;99.90;;;;;;5028816;28;20101;-76
2023/08/28 03:31:05;;;;;;;3.30;1.60;;;17.40;99.90;;;;;;5015821;28;20120;-76
2023/08/28 03:33:31;;;;;;;1.98;1.42;;;17.40;99.90;;;;;;5036630;28;20394;-79
2023/08/28 03:35:57;;;;;;;1.92;1.70;;;17.40;99.90;;;;;;5033021;28;20102;-75
2023/08/28 03:38:22;;;;;;;3.00;1.90;;;17.40;99.90;;;;;;5028599;28;20530;-79
2023/08/28 03:40:48;;;;;;;2.45;1.83;;;17.40;99.90;;;;;;5045907;28;20028;-79
2023/08/28 03:43:13;;;;;;;2.20;2.00;;;17.50;99.90;;;;;;5040422;28;20113;-76
2023/08/28 03:45:40;;;;;;;4.88;1.73;;;17.40;99.90;;;;;;5028198;28;20061;-76
2023/08/28 03:48:06;;;;;;;3.30;1.63;;;17.40;99.90;;;;;;5036266;28;20370;-76
2023/08/28 03:50:32;;;;;;;1.80;1.70;;;17.50;99.90;;;;;;5048102;28;20025;-81
2023/08/28 03:52:58;;;;;;;3.08;2.45;;;17.40;99.90;;;;;;5048740;28;20120;-78
2023/08/28 03:55:25;;;;;;;2.90;1.85;;;17.40;99.90;;;;;;5046478;28;20033;-80
2023/08/28 03:57:51;;;;;;;3.03;1.70;;;17.50;99.90;;;;;;5048476;28;20041;-75
2023/08/28 04:00:18;;;;;;;1.95;1.65;;;17.50;99.90;;;;;;5045914;28;20070;-78
2023/08/28 04:02:46;;;;;;;2.17;1.50;;;17.50;99.90;;;;;;5040414;28;20017;-77
2023/08/28 04:05:12;;;;;;;1.90;1.73;;;17.50;99.90;;;;;;5043227;28;20398;-78
2023/08/28 04:07:38;;;;;;;2.45;1.73;;;17.50;99.90;;;;;;5033516;28;20051;-78
2023/08/28 04:10:04;;;;;;;2.22;1.70;;;17.40;99.90;;;;;;5032725;28;20029;-75
2023/08/28 04:12:30;;;;;;;1.98;1.77;;;17.40;99.90;;;;;;5031166;28;20066;-75
2023/08/28 04:14:57;;;;;;;2.33;1.95;;;17.40;99.90;;;;;;5033807;28;20432;-79
2023/08/28 04:17:23;;;;;;;2.75;1.63;;;17.30;99.90;;;;;;5033360;28;20030;-80
2023/08/28 04:19:51;;;;;;;1.77;1.60;;;17.30;99.90;;;;;;5035089;28;20071;-78
2023/08/28 04:22:18;;;;;;;1.67;1.30;;;17.40;99.90;;;;;;5033911;28;20394;-75
2023/08/28 04:24:45;;;;;;;2.80;1.50;;;17.30;99.90;;;;;;5032755;28;20026;-75
2023/08/28 04:27:10;;;;;;;1.60;1.50;;;17.30;99.90;;;;;;5031333;28;20017;-79
2023/08/28 04:29:36;;;;;;;1.40;1.30;;;17.30;99.90;;;;;;5030418;28;20195;-77
2023/08/28 04:32:01;;;;;;;2.45;1.80;;;17.40;99.90;;;;;;5022335;28;20100;-79
2023/08/28 04:34:27;;;;;;;1.65;1.40;;;17.40;99.90;;;;;;5034043;28;20062;-80
2023/08/28 04:36:53;;;;;;;1.42;1.33;;;17.40;99.90;;;;;;5032825;28;20060;-79
2023/08/28 04:39:20;;;;;;;2.15;1.95;;;17.40;99.90;;;;;;5032650;28;20022;-80
2023/08/28 04:41:46;;;;;;;2.10;1.80;;;17.40;99.90;;;;;;5037843;28;20021;-78
2023/08/28 04:44:11;;;;;;;1.83;1.70;;;17.40;99.90;;;;;;5047082;28;20018;-75
2023/08/28 04:46:37;;;;;;;1.88;1.77;;;17.40;99.90;;;;;;5032354;28;20026;-76
2023/08/28 04:49:02;;;;;;;1.63;1.52;;;17.40;99.90;;;;;;5028880;28;20375;-79
2023/08/28 04:51:28;;;;;;;2.13;1.70;;;17.40;99.90;;;;;;5014293;28;20021;-78
2023/08/28 04:53:53;;;;;;;1.60;1.50;;;17.30;99.90;;;;;;5017304;28;20097;-79
2023/08/28 04:56:19;;;;;;;1.65;1.35;;;17.30;99.90;;;;;;5013832;28;20025;-79
2023/08/28 04:58:45;;;;;;;1.65;1.50;;;17.30;99.90;;;;;;5015718;28;20091;-79
2023/08/28 05:01:11;;;;;;;2.47;1.50;;;17.30;99.90;;;;;;5014500;28;20018;-75
2023/08/28 05:03:37;;;;;;;1.52;1.08;;;17.30;99.90;;;;;;5036235;28;20021;-78
2023/08/28 05:06:03;;;;;;;1.58;1.42;;;17.20;99.90;;;;;;5029122;28;20055;-75
2023/08/28 05:08:28;;;;;;;1.60;1.42;;;17.20;99.90;;;;;;5042308;28;20478;-80
2023/08/28 05:10:54;;;;;;;1.50;1.40;;;17.20;99.90;;;;;;5035596;28;20024;-76
2023/08/28 05:13:19;;;;;;;2.72;1.55;;;17.20;99.90;;;;;;5035547;28;20025;-79
2023/08/28 05:15:45;;;;;;;1.65;1.55;;;17.20;99.90;;;;;;5030410;28;20030;-80
2023/08/28 05:18:11;;;;;;;2.00;1.58;;;17.20;99.90;;;;;;5043446;28;20055;-80
2023/08/28 05:20:37;;;;;;;3.00;1.52;;;17.30;99.90;;;;;;5036552;28;20052;-79
2023/08/28 05:23:03;;;;;;;1.90;1.80;;;17.30;99.90;;;;;;5039585;28;20574;-80
2023/08/28 05:25:30;;;;;;;2.33;1.88;;;17.30;99.90;;;;;;5019990;28;20025;-79
2023/08/28 05:27:55;;;;;;;4.60;2.10;;;17.30;99.90;;;;;;5025296;28;20010;-79
2023/08/28 05:30:21;;;;;;;1.90;1.70;;;17.30;99.90;;;;;;5054744;27;20114;-79
2023/08/28 05:32:47;;;;;;;6.75;2.03;;;17.30;99.90;;;;;;5027029;28;20049;-79
2023/08/28 05:35:12;;;;;;;3.97;2.88;;;17.30;99.90;;;;;;5014877;28;20036;-76
2023/08/28 05:37:38;;;;;;;2.58;2.13;;;17.30;99.90;;;;;;5032258;28;20061;-76
2023/08/28 05:40:04;;;;;;;2.05;1.90;;;17.40;99.90;;;;;;5026278;28;20465;-76
2023/08/28 05:42:30;;;;;;;2.90;2.45;;;17.30;99.90;;;;;;5026519;28;20033;-76
2023/08/28 05:44:56;;;;;;;5.72;2.08;;;17.30;99.90;;;;;;5027437;28;20531;-76
2023/08/28 05:47:22;;;;;;;2.38;2.22;;;17.30;99.90;;;;;;5027112;28;20069;-75
2023/08/28 05:49:47;;;;;;;3.10;2.42;;;17.30;99.90;;;;;;5027232;28;20029;-75
2023/08/28 05:52:13;;;;;;;3.05;2.45;;;17.30;99.90;;;;;;5028036;28;20649;-76
2023/08/28 05:54:39;;;;;;;2.55;2.35;;;17.30;99.90;;;;;;5020992;28;20033;-75
2023/08/28 05:57:04;;;;;;;4.85;2.80;;;17.30;99.90;;;;;;5023030;28;20037;-75
2023/08/28 05:59:30;;;;;;;4.05;2.80;;;17.30;99.90;;;;;;5020650;28;20033;-75
2023/08/28 06:01:55;;;;;;;5.05;2.75;;;17.40;99.90;;;;;;5030849;28;20021;-75
2023/08/28 06:04:21;;;;;;;6.60;3.55;;;17.40;99.90;;;;;;5031097;28;20029;-75
2023/08/28 06:06:47;;;;;;;3.63;2.60;;;17.40;99.90;;;;;;5033869;28;20441;-75
2023/08/28 06:09:12;;;;;;;3.45;2.60;;;17.40;99.90;;;;;;5030678;28;20112;-75
2023/08/28 06:11:38;;;;;;;5.82;2.95;;;17.40;99.90;;;;;;5034905;28;20371;-75
2023/08/28 06:14:04;;;;;;;2.50;2.30;;;17.50;99.90;;;;;;5026633;28;20474;-75
2023/08/28 06:16:29;;;;;;;3.03;2.60;;;17.50;99.90;;;;;;5029548;28;20026;-75
2023/08/28 06:18:55;;;;;;;4.05;3.65;;;17.50;99.90;;;;;;5028044;28;20037;-75
2023/08/28 06:21:20;;;;;;;6.13;4.35;;;17.60;99.90;;;;;;5031673;28;20043;-75
2023/08/28 06:23:46;;;;;;;8.05;4.78;;;17.60;99.90;;;;;;5026332;28;20069;-75
2023/08/28 06:26:12;;;;;;;5.30;4.70;;;17.60;99.90;;;;;;5035525;28;20021;-75
2023/08/28 06:28:37;;;;;;;6.43;3.92;;;17.60;99.90;;;;;;5026572;28;20041;-75
2023/08/28 06:31:03;;;;;;;4.43;4.03;;;17.60;99.90;;;;;;5027785;28;20074;-75
2023/08/28 06:33:29;;;;;;;4.78;4.13;;;17.60;99.90;;;;;;5027865;28;20037;-75
2023/08/28 06:35:55;;;;;;;7.65;4.45;;;17.60;99.90;;;;;;5027635;28;20407;-75
2023/08/28 06:38:20;;;;;;;5.50;4.13;;;17.60;99.90;;;;;;5027884;28;20125;-75
2023/08/28 06:40:50;;;;;;;4.60;3.47;;;17.60;99.90;;;;;;5016256;28;20026;-76
2023/08/28 06:43:16;;;;;;;4.55;3.20;;;17.60;99.90;;;;;;5025622;28;20046;-75
2023/08/28 06:45:42;;;;;;;7.63;3.30;;;17.50;99.90;;;;;;5027006;28;20110;-76
2023/08/28 06:48:08;;;;;;;3.80;3.40;;;17.60;99.90;;;;;;5028442;28;20045;-75
2023/08/28 06:50:34;;;;;;;4.30;3.78;;;17.60;99.90;;;;;;5029071;28;20442;-75
2023/08/28 06:53:00;;;;;;;5.95;3.90;;;17.60;99.90;;;;;;5030162;28;20036;-76
2023/08/28 06:55:27;;;;;;;6.20;3.63;;;17.70;99.90;;;;;;5028102;28;20459;-79
2023/08/28 06:57:53;;;;;;;4.35;3.40;;;17.70;99.90;;;;;;5027930;28;20040;-79
2023/08/28 07:00:19;;;;;;;4.38;3.70;;;17.70;99.90;;;;;;5029093;28;20029;-80
2023/08/28 07:02:45;;;;;;;4.63;4.07;;;17.70;99.90;;;;;;5030729;28;20390;-80
2023/08/28 07:05:10;;;;;;;6.28;4.05;;;17.60;99.90;;;;;;5031746;28;20026;-79
2023/08/28 07:07:36;;;;;;;5.00;4.07;;;17.50;99.90;;;;;;5029472;28;20030;-79
2023/08/28 07:10:04;;;;;;;5.03;4.50;;;17.50;99.90;;;;;;5026669;28;20116;-79
2023/08/28 07:12:29;;;;;;;6.93;4.47;;;17.40;99.90;;;;;;5021277;28;20107;-79
2023/08/28 07:15:11;;;;;;;6.03;5.28;;;17.30;99.90;;;;;;5034486;28;20046;-79
2023/08/28 07:17:37;;;;;;;6.40;5.40;;;17.30;99.90;;;;;;5023639;28;20040;-79
2023/08/28 07:20:04;;;;;;;8.00;4.82;;;17.40;99.90;;;;;;5013682;28;20523;-79
2023/08/28 07:22:30;;;;;;;8.63;5.15;;;17.30;99.90;;;;;;5020967;28;20147;-79
2023/08/28 07:24:56;;;;;;;10.23;5.82;;;17.30;99.90;;;;;;5028201;28;20044;-79
2023/08/28 07:27:22;;;;;;;9.18;5.30;;;17.30;99.90;;;;;;5033050;28;20029;-79
2023/08/28 07:29:48;;;;;;;7.78;6.03;;;17.40;99.90;;;;;;5040299;28;20035;-79
2023/08/28 07:32:13;;;;;;;7.22;5.18;;;17.30;99.90;;;;;;5037746;28;20390;-79
2023/08/28 07:34:39;;;;;;;8.38;5.43;;;17.40;99.90;;;;;;5053333;28;20030;-79
2023/08/28 07:37:05;;;;;;;6.70;4.70;;;17.50;99.90;;;;;;5027212;28;20053;-79
2023/08/28 07:39:31;;;;;;;5.70;4.95;;;17.60;99.90;;;;;;5028532;28;20375;-79
2023/08/28 07:41:57;;;;;;;4.88;3.95;;;17.70;99.90;;;;;;5025121;28;20055;-80
2023/08/28 07:44:23;;;;;;;5.00;3.47;;;17.80;99.90;;;;;;5029358;28;20497;-80
2023/08/28 07:46:49;;;;;;;3.92;3.42;;;17.80;99.90;;;;;;5027919;28;20030;-80
2023/08/28 07:49:14;;;;;;;6.40;5.05;;;17.80;99.90;;;;;;5029741;28;20041;-79
2023/08/28 07:51:40;;;;;;;4.50;4.10;;;17.70;99.90;;;;;;5028920;28;20108;-80
2023/08/28 07:54:06;;;;;;;7.82;4.03;;;17.70;99.90;;;;;;5028193;28;20386;-79
2023/08/28 07:56:32;;;;;;;6.28;3.65;;;17.80;99.90;;;;;;5029961;28;20045;-79
2023/08/28 07:58:58;;;;;;;4.13;3.83;;;17.70;99.90;;;;;;5028754;28;20033;-79
2023/08/28 08:01:23;;;;;;;3.50;3.20;;;17.80;99.90;;;;;;5029418;28;20021;-80
2023/08/28 08:03:49;;;;;;;3.38;2.97;;;17.90;99.90;;;;;;5027418;28;20517;-80
2023/08/28 08:06:16;;;;;;;3.03;2.80;;;18.00;99.90;;;;;;5031443;28;20018;-80
2023/08/28 08:08:45;;;;;;;5.70;3.40;;;18.20;99.90;;;;;;5026162;28;20017;-79
2023/08/28 08:11:11;;;;;;;4.85;3.22;;;18.20;99.90;;;;;;5028116;28;20006;-80
2023/08/28 08:13:37;;;;;;;4.28;3.33;;;18.30;99.90;;;;;;5032032;28;20402;-79
2023/08/28 08:16:04;;;;;;;4.25;3.42;;;18.40;99.90;;;;;;5029860;28;20018;-79
2023/08/28 08:18:30;;;;;;;2.67;2.47;;;18.50;99.90;;;;;;5030757;28;20057;-80
2023/08/28 08:20:56;;;;;;;3.88;3.28;;;18.50;99.90;;;;;;5028737;28;20122;-80
2023/08/28 08:23:21;;;;;;;3.08;2.70;;;18.60;99.90;;;;;;5029726;28;20459;-79
2023/08/28 08:25:47;;;;;;;4.75;3.20;;;18.60;99.90;;;;;;5028953;28;20034;-76
2023/08/28 08:28:15;;;;;;;3.95;3.45;;;18.60;99.90;;;;;;5017763;28;20112;-79
2023/08/28 08:30:41;;;;;;;3.67;3.17;;;18.70;99.90;;;;;;5018237;28;20021;-79
2023/08/28 08:33:06;;;;;;;4.88;3.55;;;18.80;99.90;;;;;;5025968;28;20539;-76
2023/08/28 08:35:33;;;;;;;4.07;3.67;;;18.90;99.90;;;;;;5028210;28;20016;-79
2023/08/28 08:37:58;;;;;;;4.15;3.80;;;19.00;99.90;;;;;;5027559;28;20022;-76
2023/08/28 08:40:26;;;;;;;4.10;3.20;;;19.00;99.90;;;;;;5025236;28;20077;-76
2023/08/28 08:42:53;;;;;;;3.58;3.08;;;19.10;99.90;;;;;;5028252;28;20022;-76
2023/08/28 08:45:23;;;;;;;3.83;3.53;;;19.20;99.90;;;;;;5027698;28;20074;-76
2023/08/28 08:47:53;;;;;;;3.38;3.08;;;19.30;99.90;;;;;;5027582;28;20068;-76
2023/08/28 08:50:20;;;;;;;2.83;2.60;;;19.20;99.90;;;;;;5025677;28;21160;-76
2023/08/28 08:52:47;;;;;;;4.00;3.25;;;19.30;99.90;;;;;;5032537;28;20480;-76
2023/08/28 08:55:18;;;;;;;3.58;2.97;;;19.20;99.90;;;;;;5031001;28;20018;-76
2023/08/28 08:57:47;;;;;;;3.60;3.10;;;19.00;99.90;;;;;;5034994;28;20048;-76
2023/08/28 09:00:15;;;;;;;5.90;3.50;;;19.00;99.90;;;;;;5036636;28;20025;-76
2023/08/28 09:02:41;;;;;;;3.97;3.58;;;18.90;99.90;;;;;;5029467;28;20036;-76
2023/08/28 09:05:09;;;;;;;6.72;3.75;;;18.80;99.90;;;;;;5032139;28;20029;-76
2023/08/28 09:07:37;;;;;;;3.88;3.47;;;18.70;99.90;;;;;;5034208;28;20029;-79
2023/08/28 09:10:04;;;;;;;4.25;3.85;;;18.60;99.90;;;;;;5032544;28;20498;-79
2023/08/28 09:12:30;;;;;;;3.85;3.55;;;18.70;99.90;;;;;;5036956;28;20020;-79
2023/08/28 09:14:56;;;;;;;4.57;3.90;;;18.60;99.90;;;;;;5030389;28;20021;-76
2023/08/28 09:17:21;;;;;;;7.40;4.95;;;18.60;99.90;;;;;;5023620;28;20045;-77
2023/08/28 09:19:47;;;;;;;5.45;3.92;;;18.50;99.90;;;;;;5031695;28;20432;-76
2023/08/28 09:22:13;;;;;;;4.72;4.32;;;18.50;99.90;;;;;;5030755;28;20030;-79
2023/08/28 09:24:39;;;;;;;4.82;3.92;;;18.60;99.90;;;;;;5031771;28;20030;-77
2023/08/28 09:27:05;;;;;;;4.43;3.97;;;18.50;99.90;;;;;;5032072;28;20026;-79
2023/08/28 09:29:30;;;;;;;5.97;4.05;;;18.50;99.90;;;;;;5029432;28;20045;-76
2023/08/28 09:32:03;;;;;;;4.05;3.75;;;18.70;99.90;;;;;;5031069;28;20037;-76
2023/08/28 09:34:39;;;;;;;4.55;4.05;;;18.90;99.90;;;;;;5042693;28;20117;-76
2023/08/28 09:37:09;;;;;;;4.63;4.25;;;19.00;99.90;;;;;;5026253;28;20136;-79
2023/08/28 09:39:38;;;;;;;4.57;3.75;;;19.10;99.90;;;;;;5029803;28;20026;-80
2023/08/28 09:42:05;;;;;;;5.70;4.63;;;19.10;99.90;;;;;;5045110;28;20021;-80
2023/08/28 09:44:34;;;;;;;6.00;5.40;;;19.20;99.90;;;;;;5033513;28;20021;-80
2023/08/28 09:47:00;;;;;;;5.82;4.30;;;19.40;99.90;;;;;;5028491;28;20028;-79
2023/08/28 09:49:26;;;;;;;5.15;4.45;;;19.40;99.90;;;;;;5039553;28;20048;-80
2023/08/28 09:51:51;;;;;;;4.32;3.83;;;19.50;99.90;;;;;;5037918;28;20101;-79
2023/08/28 09:54:18;;;;;;;5.80;4.72;;;19.60;99.90;;;;;;5036844;28;20108;-79
2023/08/28 09:56:44;;;;;;;6.90;4.45;;;19.70;99.90;;;;;;5032453;28;20168;-80
2023/08/28 09:59:11;;;;;;;4.35;4.05;;;19.80;99.90;;;;;;5029679;28;20056;-80
2023/08/28 10:01:37;;;;;;;5.70;4.80;;;19.70;99.90;;;;;;5020106;28;20038;-80
2023/08/28 10:04:08;;;;;;;6.72;5.82;;;19.80;99.90;;;;;;5032669;28;20024;-80
2023/08/28 10:06:38;;;;;;;4.75;4.32;;;19.90;99.90;;;;;;5020417;28;20062;-80
2023/08/28 10:09:06;;;;;;;7.53;4.05;;;19.90;99.90;;;;;;5029249;28;20022;-79
2023/08/28 10:11:39;;;;;;;4.50;4.10;;;19.80;99.90;;;;;;5036629;28;20029;-79
2023/08/28 10:14:06;;;;;;;4.60;4.20;;;19.80;99.90;;;;;;5026424;28;20045;-76
2023/08/28 10:16:57;;;;;;;3.35;3.15;;;19.70;99.90;;;;;;5033983;28;20463;-77
2023/08/28 10:19:33;;;;;;;4.13;3.80;;;19.80;99.90;;;;;;5025649;28;20022;-76
2023/08/28 10:22:02;;;;;;;3.72;3.50;;;19.60;99.90;;;;;;5026550;28;20036;-76
2023/08/28 10:24:30;;;;;;;4.97;4.15;;;19.70;99.90;;;;;;5027749;28;20411;-77
2023/08/28 10:26:57;;;;;;;3.53;3.22;;;19.60;99.90;;;;;;5021336;28;20045;-76
2023/08/28 10:29:24;;;;;;;4.30;3.90;;;19.70;99.90;;;;;;5027107;28;20022;-76
2023/08/28 10:31:53;;;;;;;6.18;4.25;;;19.60;99.90;;;;;;5017372;28;20108;-76
2023/08/28 10:34:20;;;;;;;4.13;3.72;;;19.50;99.90;;;;;;5016957;28;20083;-76
2023/08/28 10:36:46;;;;;;;5.32;4.03;;;19.70;99.90;;;;;;5026634;28;20052;-76
2023/08/28 10:39:12;;;;;;;4.30;3.90;;;19.70;99.90;;;;;;5029845;28;20021;-76
2023/08/28 10:41:39;;;;;;;4.70;3.95;;;19.70;99.90;;;;;;5024159;28;20399;-76
2023/08/28 10:44:06;;;;;;;4.15;3.40;;;19.80;99.90;;;;;;5029602;28;20018;-76
2023/08/28 10:46:32;;;;;;;4.15;3.75;;;19.70;99.90;;;;;;5027434;28;20104;-76
2023/08/28 10:49:02;;;;;;;4.60;4.15;;;19.70;99.90;;;;;;5030698;28;20024;-77
2023/08/28 10:51:35;;;;;;;4.22;3.83;;;19.60;99.90;;;;;;5027750;28;20041;-77
2023/08/28 10:54:10;;;;;;;5.05;4.38;;;19.60;99.90;;;;;;5037894;27;20022;-76
2023/08/28 10:56:37;;;;;;;4.22;3.80;;;19.50;99.90;;;;;;5028226;28;20030;-76
2023/08/28 10:59:45;;;;;;;4.82;4.18;;;19.60;99.90;;;;;;5031145;28;20389;-76
2023/08/28 11:02:11;;;;;;;4.40;4.00;;;19.70;99.90;;;;;;5019300;28;20409;-77
2023/08/28 11:04:39;;;;;;;4.05;3.75;;;19.70;99.90;;;;;;5029268;28;20024;-76
2023/08/28 11:07:07;;;;;;;4.00;3.67;;;19.70;99.90;;;;;;5026738;28;20033;-76
2023/08/28 11:09:33;;;;;;;5.70;4.35;;;19.70;99.90;;;;;;5020515;28;20032;-76
2023/08/28 11:11:59;;;;;;;3.72;3.42;;;19.80;99.90;;;;;;5031490;28;20033;-76
2023/08/28 11:14:31;;;;;;;4.50;3.60;;;19.80;99.90;;;;;;5026520;28;20037;-76
2023/08/28 11:17:14;;;;;;;4.25;3.95;;;19.80;99.90;;;;;;5030163;28;20123;-75
2023/08/28 11:19:55;;;;;;;7.28;4.55;;;19.80;99.90;;;;;;5032086;28;20021;-76
2023/08/28 11:22:42;;;;;;;4.50;4.10;;;19.80;99.90;;;;;;5032629;28;20557;-75
2023/08/28 11:25:12;;;;;;;5.05;4.50;;;19.80;99.90;;;;;;5027653;28;20502;-76
2023/08/28 11:27:48;;;;;;;4.95;4.45;;;19.90;99.90;;;;;;5033943;28;20494;-75
2023/08/28 11:30:16;;;;;;;4.50;4.18;;;19.80;99.90;;;;;;5052454;27;20054;-76
2023/08/28 11:32:44;;;;;;;4.80;4.38;;;19.70;99.90;;;;;;5026498;28;20026;-76
2023/08/28 11:35:13;;;;;;;4.57;4.15;;;19.80;99.90;;;;;;5025806;28;20468;-76
2023/08/28 11:37:45;;;;;;;6.97;4.78;;;19.70;99.90;;;;;;5028142;28;20061;-76
2023/08/28 11:40:10;;;;;;;7.32;5.82;;;19.80;99.90;;;;;;5027445;28;20024;-76
2023/08/28 11:42:37;;;;;;;11.70;8.93;;;19.80;99.90;;;;;;5027116;28;20033;-80
2023/08/28 11:45:05;;;;;;;5.90;5.25;;;19.70;99.90;;;;;;5026528;28;20033;-80
2023/08/28 11:47:32;;;;;;;5.78;5.28;;;19.50;99.90;;;;;;5026137;28;20033;-79
2023/08/28 11:49:58;;;;;;;5.55;5.05;;;19.50;99.90;;;;;;5029314;28;20033;-75
2023/08/28 11:52:25;;;;;;;6.07;5.55;;;19.40;99.90;;;;;;5026973;28;20034;-79
2023/08/28 11:54:52;;;;;;;6.78;5.03;;;19.40;99.90;;;;;;5030389;28;20108;-80
2023/08/28 11:57:18;;;;;;;6.47;5.68;;;19.40;99.90;;;;;;5031453;28;20301;-80
2023/08/28 11:59:45;;;;;;;8.38;5.50;;;19.50;99.90;;;;;;5027892;28;20021;-80
2023/08/28 12:02:15;;;;;;;10.43;6.50;;;19.50;99.90;;;;;;5024388;28;20453;-79
2023/08/28 12:04:41;;;;;;;6.00;5.43;;;19.60;99.90;;;;;;5021026;28;20382;-80
2023/08/28 12:07:17;;;;;;;8.38;7.60;;;19.70;99.90;;;;;;5030441;28;20402;-79
2023/08/28 12:09:44;;;;;;;8.98;6.55;;;19.70;99.90;;;;;;5026356;28;20112;-79
2023/08/28 12:12:09;;;;;;;7.20;6.50;;;19.70;99.90;;;;;;5029991;28;20030;-79
2023/08/28 12:14:35;;;;;;;7.90;7.10;;;19.80;99.90;;;;;;5025674;28;20066;-79
2023/08/28 12:17:01;;;;;;;8.95;7.63;;;19.60;99.90;;;;;;5031434;28;20058;-79
2023/08/28 12:19:26;;;;;;;8.25;7.45;;;19.60;99.90;;;;;;5027776;28;20415;-80
2023/08/28 12:22:02;;;;;;;8.27;7.50;;;19.80;99.90;;;;;;5025496;28;20026;-80
2023/08/28 12:24:28;;;;;;;8.70;7.85;;;20.00;99.90;;;;;;5024324;28;20026;-80
2023/08/28 12:26:56;;;;;;;9.23;8.32;;;20.00;99.90;;;;;;5034722;28;20037;-80
2023/08/28 12:29:24;;;;;;;9.15;7.95;;;20.10;99.90;;;;;;5033109;28;20467;-80
2023/08/28 12:31:50;;;;;;;9.30;8.45;;;20.00;99.90;;;;;;5027717;28;20021;-76
2023/08/28 12:34:15;;;;;;;10.95;8.07;;;20.00;99.90;;;;;;5029742;28;20482;-77
2023/08/28 12:36:46;;;;;;;9.52;7.32;;;20.20;99.90;;;;;;5028904;28;20417;-77
2023/08/28 12:39:21;;;;;;;8.75;7.90;;;20.30;99.90;;;;;;5031299;28;20022;-79
2023/08/28 12:41:54;;;;;;;9.25;8.35;;;20.20;99.90;;;;;;5030191;28;20082;-79
2023/08/28 12:44:21;;;;;;;8.50;7.70;;;20.20;99.90;;;;;;5030212;28;20504;-79
2023/08/28 12:46:47;;;;;;;9.27;7.93;;;20.30;99.90;;;;;;5027293;28;20018;-79